createdAt,value
2022-12-31T00:01:10.872Z,98.72
2022-12-31T00:03:18.692Z,98.80
2022-12-31T00:05:23.494Z,99.10
2022-12-31T00:09:35.756Z,99.58
2022-12-31T00:11:40.687Z,99.34
2022-12-31T00:13:45.951Z,98.72
2022-12-31T00:15:50.643Z,98.54
2022-12-31T00:17:58.011Z,98.73
2022-12-31T00:20:04.191Z,98.75
2022-12-31T00:22:08.952Z,99.22
2022-12-31T00:24:13.693Z,99.62
2022-12-31T00:26:20.067Z,99.11
2022-12-31T00:28:25.041Z,99.11
2022-12-31T00:30:33.976Z,99.27
2022-12-31T00:32:39.012Z,98.43
2022-12-31T00:34:43.685Z,98.51
2022-12-31T00:36:48.470Z,98.58
2022-12-31T00:38:56.364Z,99.11
2022-12-31T00:41:01.275Z,98.90
2022-12-31T00:43:06.017Z,99.29
2022-12-31T00:45:12.008Z,99.21
2022-12-31T00:47:16.738Z,99.55
2022-12-31T00:49:25.171Z,99.46
2022-12-31T00:51:30.487Z,99.32
2022-12-31T00:53:35.997Z,99.29
2022-12-31T00:55:40.816Z,98.94
2022-12-31T00:57:45.655Z,98.18
2022-12-31T00:59:50.405Z,98.36
2022-12-31T01:01:58.086Z,99.29
2022-12-31T01:04:05.305Z,99.09
2022-12-31T01:06:12.862Z,98.85
2022-12-31T01:08:17.710Z,99.39
2022-12-31T01:10:22.704Z,99.38
2022-12-31T01:12:27.708Z,99.60
2022-12-31T01:14:32.422Z,99.41
2022-12-31T01:16:40.934Z,98.72
2022-12-31T01:18:45.820Z,98.70
2022-12-31T01:20:53.242Z,98.99
2022-12-31T01:22:58.363Z,99.68
2022-12-31T01:25:03.106Z,99.71
2022-12-31T01:27:08.349Z,99.75
2022-12-31T01:29:14.153Z,99.46
2022-12-31T01:31:21.007Z,99.76
2022-12-31T01:33:31.434Z,99.91
2022-12-31T01:35:37.395Z,99.90
2022-12-31T01:37:42.299Z,99.67
2022-12-31T01:39:47.081Z,99.96
2022-12-31T01:41:52.216Z,100.00
2022-12-31T01:43:58.984Z,100.00
2022-12-31T01:46:08.045Z,100.00
2022-12-31T01:48:15.393Z,99.95
2022-12-31T01:50:25.302Z,100.00
2022-12-31T01:52:34.856Z,100.00
2022-12-31T01:54:44.765Z,100.00
2022-12-31T01:56:53.700Z,99.74
2022-12-31T01:59:10.626Z,99.97
2022-12-31T02:01:20.019Z,100.00
2022-12-31T02:03:27.208Z,100.00
2022-12-31T02:05:37.692Z,100.00
2022-12-31T02:07:43.107Z,100.00
2022-12-31T02:09:48.108Z,100.00
2022-12-31T02:11:52.798Z,100.00
2022-12-31T02:14:06.105Z,100.00
2022-12-31T02:16:19.469Z,100.00
2022-12-31T02:18:34.864Z,100.00
2022-12-31T02:21:04.365Z,100.00
2022-12-31T02:23:32.635Z,100.00
2022-12-31T02:26:11.620Z,100.00
2022-12-31T02:28:42.640Z,100.00
2022-12-31T02:30:56.044Z,100.00
2022-12-31T02:33:14.527Z,100.00
2022-12-31T02:35:24.493Z,100.00
2022-12-31T02:37:33.687Z,100.00
2022-12-31T02:39:40.636Z,100.00
2022-12-31T02:41:49.544Z,100.00
2022-12-31T02:43:54.274Z,99.85
2022-12-31T02:46:08.018Z,99.98
2022-12-31T02:48:42.796Z,99.88
2022-12-31T02:50:57.991Z,100.00
2022-12-31T02:53:15.107Z,99.57
2022-12-31T02:55:24.966Z,99.25
2022-12-31T02:57:38.141Z,99.09
2022-12-31T02:59:51.856Z,99.25
2022-12-31T03:02:04.565Z,99.40
2022-12-31T03:04:09.680Z,99.31
2022-12-31T03:06:15.354Z,99.33
2022-12-31T03:08:25.134Z,99.13
2022-12-31T03:10:29.904Z,98.65
2022-12-31T03:12:36.255Z,98.73
2022-12-31T03:14:41.310Z,98.74
2022-12-31T03:16:49.005Z,98.54
2022-12-31T03:18:54.704Z,98.37
2022-12-31T03:21:00.540Z,98.42
2022-12-31T03:23:10.086Z,98.09
2022-12-31T03:25:18.611Z,97.59
2022-12-31T03:27:23.314Z,97.61
2022-12-31T03:29:28.011Z,98.05
2022-12-31T03:31:32.805Z,98.67
2022-12-31T03:33:39.971Z,98.99
2022-12-31T03:35:46.182Z,99.33
2022-12-31T03:37:51.649Z,98.77
2022-12-31T03:39:59.214Z,98.28
2022-12-31T03:42:05.389Z,97.92
2022-12-31T03:44:10.115Z,98.38
2022-12-31T03:46:15.277Z,98.48
2022-12-31T03:48:23.677Z,98.20
2022-12-31T03:50:28.846Z,98.43
2022-12-31T03:52:36.415Z,98.92
2022-12-31T03:54:42.311Z,99.14
2022-12-31T03:56:49.696Z,99.14
2022-12-31T03:58:54.532Z,99.65
2022-12-31T04:00:59.436Z,99.40
2022-12-31T04:03:04.381Z,98.10
2022-12-31T04:05:10.107Z,98.17
2022-12-31T04:07:14.862Z,98.77
2022-12-31T04:09:19.837Z,99.19
2022-12-31T04:11:25.256Z,98.73
2022-12-31T04:13:29.969Z,98.94
2022-12-31T04:15:34.800Z,99.28
2022-12-31T04:17:42.053Z,99.38
2022-12-31T04:19:49.579Z,99.08
2022-12-31T04:21:54.307Z,99.17
2022-12-31T04:24:00.318Z,98.49
2022-12-31T04:26:05.199Z,98.78
2022-12-31T04:28:09.869Z,98.61
2022-12-31T04:30:15.402Z,99.05
2022-12-31T04:32:21.510Z,98.48
2022-12-31T04:34:26.247Z,98.24
2022-12-31T04:36:31.210Z,98.40
2022-12-31T04:38:36.045Z,97.96
2022-12-31T04:40:44.879Z,97.60
2022-12-31T04:42:49.546Z,97.79
2022-12-31T04:44:54.330Z,97.84
2022-12-31T04:46:59.021Z,98.08
2022-12-31T04:49:06.417Z,98.22
2022-12-31T04:51:14.656Z,98.17
2022-12-31T04:53:21.238Z,97.64
2022-12-31T04:55:25.971Z,97.25
2022-12-31T04:57:33.692Z,97.14
2022-12-31T04:59:38.364Z,97.49
2022-12-31T05:01:43.090Z,98.04
2022-12-31T05:03:48.330Z,98.14
2022-12-31T05:05:54.725Z,98.11
2022-12-31T05:07:59.544Z,98.44
2022-12-31T05:10:04.808Z,98.40
2022-12-31T05:12:09.617Z,98.54
2022-12-31T05:14:14.309Z,98.43
2022-12-31T05:16:23.553Z,98.40
2022-12-31T05:18:28.358Z,98.35
2022-12-31T05:20:33.107Z,98.05
2022-12-31T05:22:37.849Z,97.65
2022-12-31T05:24:42.794Z,97.63
2022-12-31T05:26:47.556Z,98.18
2022-12-31T05:28:53.173Z,98.46
2022-12-31T05:30:58.321Z,97.73
2022-12-31T05:33:03.882Z,97.59
2022-12-31T05:35:09.876Z,97.57
2022-12-31T05:37:14.725Z,97.61
2022-12-31T05:39:19.425Z,97.34
2022-12-31T05:41:24.172Z,97.26
2022-12-31T05:43:29.329Z,97.80
2022-12-31T05:45:34.094Z,98.04
2022-12-31T05:47:38.937Z,98.35
2022-12-31T05:49:45.198Z,98.44
2022-12-31T05:51:49.947Z,98.74
2022-12-31T05:53:54.684Z,99.03
2022-12-31T05:56:00.242Z,99.02
2022-12-31T05:58:07.903Z,99.37
2022-12-31T06:00:14.859Z,99.21
2022-12-31T06:02:23.295Z,99.50
2022-12-31T06:04:28.741Z,99.73
2022-12-31T06:06:33.716Z,99.67
2022-12-31T06:08:39.031Z,99.83
2022-12-31T06:10:44.135Z,99.58
2022-12-31T06:12:48.879Z,99.73
2022-12-31T06:14:53.752Z,99.55
2022-12-31T06:16:58.504Z,99.62
2022-12-31T06:19:03.519Z,99.79
2022-12-31T06:21:08.539Z,99.88
2022-12-31T06:23:13.355Z,99.73
2022-12-31T06:25:18.475Z,99.80
2022-12-31T06:27:26.182Z,100.00
2022-12-31T06:29:30.900Z,99.99
2022-12-31T06:31:36.333Z,99.99
2022-12-31T06:33:44.067Z,99.99
2022-12-31T06:35:48.987Z,100.00
2022-12-31T06:37:54.614Z,100.00
2022-12-31T06:39:59.494Z,99.78
2022-12-31T06:42:04.440Z,99.99
2022-12-31T06:44:09.404Z,100.00
2022-12-31T06:46:16.211Z,99.96
2022-12-31T06:48:21.099Z,99.74
2022-12-31T06:50:25.847Z,99.83
2022-12-31T06:52:31.850Z,99.90
2022-12-31T06:54:37.464Z,100.00
2022-12-31T06:56:43.573Z,100.00
2022-12-31T06:58:49.436Z,100.00
2022-12-31T07:01:06.544Z,100.00
2022-12-31T07:03:29.467Z,100.00
2022-12-31T07:05:45.908Z,100.00
2022-12-31T07:08:02.209Z,99.86
2022-12-31T07:10:25.587Z,99.50
2022-12-31T07:12:45.517Z,99.67
2022-12-31T07:14:58.050Z,99.78
2022-12-31T07:17:13.223Z,99.85
2022-12-31T07:19:32.611Z,99.92
2022-12-31T07:21:40.159Z,99.84
2022-12-31T07:23:48.844Z,99.98
2022-12-31T07:26:01.134Z,99.78
2022-12-31T07:28:19.390Z,99.72
2022-12-31T07:30:29.906Z,99.82
2022-12-31T07:33:06.289Z,99.82
2022-12-31T07:35:22.821Z,99.64
2022-12-31T07:37:42.383Z,99.52
2022-12-31T07:40:03.308Z,99.04
2022-12-31T07:42:15.269Z,98.81
2022-12-31T07:44:41.943Z,98.92
2022-12-31T07:46:55.024Z,99.21
2022-12-31T07:49:02.067Z,99.43
2022-12-31T07:51:10.033Z,99.44
2022-12-31T07:53:17.620Z,99.25
2022-12-31T07:55:22.309Z,98.68
2022-12-31T07:57:36.987Z,98.93
2022-12-31T07:59:56.219Z,99.20
2022-12-31T08:02:07.246Z,99.35
2022-12-31T08:04:24.527Z,99.40
2022-12-31T08:06:39.041Z,98.96
2022-12-31T08:08:50.906Z,98.76
2022-12-31T08:11:06.611Z,99.21
2022-12-31T08:13:14.518Z,99.34
2022-12-31T08:15:25.384Z,99.17
2022-12-31T08:17:32.721Z,98.48
2022-12-31T08:19:39.195Z,98.45
2022-12-31T08:21:52.584Z,98.46
2022-12-31T08:24:06.552Z,98.54
2022-12-31T08:26:29.451Z,98.41
2022-12-31T08:28:50.660Z,98.01
2022-12-31T08:31:01.846Z,98.08
2022-12-31T08:33:14.194Z,98.43
2022-12-31T08:35:36.076Z,98.86
2022-12-31T08:37:48.302Z,98.42
2022-12-31T08:40:06.896Z,98.02
2022-12-31T08:42:31.188Z,98.24
2022-12-31T08:44:44.618Z,97.80
2022-12-31T08:46:55.712Z,97.11
2022-12-31T08:49:01.275Z,96.88
2022-12-31T08:51:15.267Z,97.38
2022-12-31T08:53:21.742Z,98.72
2022-12-31T08:55:27.434Z,99.77
2022-12-31T08:57:39.926Z,99.89
2022-12-31T08:59:54.465Z,98.17
2022-12-31T09:02:46.210Z,97.71
2022-12-31T09:05:04.517Z,97.81
2022-12-31T09:07:12.761Z,97.40
2022-12-31T09:09:27.806Z,96.84
2022-12-31T09:11:43.232Z,97.16
2022-12-31T09:14:08.501Z,96.46
2022-12-31T09:16:22.782Z,96.41
2022-12-31T09:18:33.133Z,96.33
2022-12-31T09:20:44.155Z,96.05
2022-12-31T09:22:49.855Z,95.84
2022-12-31T09:24:55.191Z,95.57
2022-12-31T09:27:11.354Z,94.93
2022-12-31T09:29:27.809Z,94.30
2022-12-31T09:31:40.378Z,94.20
2022-12-31T09:33:51.585Z,94.41
2022-12-31T09:36:02.071Z,94.88
2022-12-31T09:38:16.650Z,94.80
2022-12-31T09:40:50.746Z,94.64
2022-12-31T09:43:18.933Z,93.67
2022-12-31T09:46:19.257Z,93.90
2022-12-31T09:49:01.862Z,93.39
2022-12-31T09:51:27.787Z,93.90
2022-12-31T09:53:56.315Z,93.58
2022-12-31T09:56:06.332Z,93.54
2022-12-31T09:58:28.977Z,93.49
2022-12-31T10:00:41.567Z,93.19
2022-12-31T10:03:07.199Z,92.62
2022-12-31T10:05:35.637Z,92.35
2022-12-31T10:07:53.509Z,92.41
2022-12-31T10:10:09.449Z,93.07
2022-12-31T10:12:42.431Z,93.21
2022-12-31T10:15:09.837Z,92.66
2022-12-31T10:17:32.646Z,92.78
2022-12-31T10:20:03.095Z,92.08
2022-12-31T10:22:26.597Z,91.89
2022-12-31T10:24:53.316Z,91.38
2022-12-31T10:27:11.228Z,91.00
2022-12-31T10:29:31.390Z,91.32
2022-12-31T10:31:50.277Z,91.65
2022-12-31T10:34:05.839Z,91.78
2022-12-31T10:36:18.743Z,91.81
2022-12-31T10:38:38.519Z,91.16
2022-12-31T10:41:08.528Z,91.13
2022-12-31T10:43:55.486Z,90.64
2022-12-31T10:46:33.315Z,90.02
2022-12-31T10:49:01.013Z,90.17
2022-12-31T10:51:45.455Z,89.36
2022-12-31T10:54:19.185Z,89.44
2022-12-31T10:57:05.951Z,89.87
2022-12-31T10:59:34.082Z,89.79
2022-12-31T11:01:58.022Z,89.65
2022-12-31T11:04:33.510Z,89.43
2022-12-31T11:07:04.650Z,88.08
2022-12-31T11:09:34.558Z,88.85
2022-12-31T11:11:53.085Z,89.41
2022-12-31T11:14:20.521Z,89.06
2022-12-31T11:16:33.903Z,88.88
2022-12-31T11:18:47.088Z,88.14
2022-12-31T11:21:06.999Z,88.69
2022-12-31T11:23:26.938Z,88.98
2022-12-31T11:25:41.121Z,89.16
2022-12-31T11:28:05.379Z,89.43
2022-12-31T11:30:22.645Z,89.71
2022-12-31T11:32:44.335Z,89.87
2022-12-31T11:35:15.632Z,90.16
2022-12-31T11:37:33.260Z,90.35
2022-12-31T11:39:49.068Z,90.46
2022-12-31T11:41:58.942Z,90.66
2022-12-31T11:44:18.052Z,90.77
2022-12-31T11:46:56.001Z,90.19
2022-12-31T11:49:16.270Z,90.03
2022-12-31T11:51:50.047Z,89.86
2022-12-31T11:54:19.747Z,89.28
2022-12-31T11:56:29.412Z,90.38
2022-12-31T11:58:34.349Z,90.93
2022-12-31T12:00:42.871Z,90.73
2022-12-31T12:02:49.565Z,91.05
2022-12-31T12:04:55.983Z,91.06
2022-12-31T12:07:00.798Z,90.73
2022-12-31T12:09:11.216Z,90.26
2022-12-31T12:11:21.609Z,90.06
2022-12-31T12:13:27.847Z,89.96
2022-12-31T12:15:34.333Z,90.51
2022-12-31T12:17:40.793Z,89.92
2022-12-31T12:19:47.746Z,90.44
2022-12-31T12:21:55.772Z,90.80
2022-12-31T12:24:02.305Z,90.70
2022-12-31T12:26:07.681Z,90.29
2022-12-31T12:28:24.369Z,90.44
2022-12-31T12:30:30.004Z,90.70
2022-12-31T12:32:35.119Z,90.04
2022-12-31T12:34:47.545Z,90.73
2022-12-31T12:36:54.736Z,90.93
2022-12-31T12:39:07.880Z,90.23
2022-12-31T12:41:19.819Z,90.29
2022-12-31T12:43:28.767Z,90.46
2022-12-31T12:45:45.140Z,90.98
2022-12-31T12:47:58.418Z,90.43
2022-12-31T12:50:04.097Z,89.95
2022-12-31T12:52:24.062Z,89.63
2022-12-31T12:54:44.871Z,90.25
2022-12-31T12:57:02.247Z,89.71
2022-12-31T12:59:30.487Z,89.76
2022-12-31T13:01:45.200Z,89.41
2022-12-31T13:04:34.076Z,89.71
2022-12-31T13:06:53.147Z,89.66
2022-12-31T13:09:10.924Z,89.83
2022-12-31T13:11:30.817Z,89.84
2022-12-31T13:13:45.607Z,90.83
2022-12-31T13:15:57.182Z,90.93
2022-12-31T13:18:12.945Z,90.68
2022-12-31T13:20:25.445Z,90.79
2022-12-31T13:22:37.514Z,90.49
2022-12-31T13:24:52.524Z,91.00
2022-12-31T13:27:05.848Z,90.62
2022-12-31T13:29:19.307Z,90.25
2022-12-31T13:31:33.284Z,89.66
2022-12-31T13:33:42.577Z,89.61
2022-12-31T13:35:52.915Z,89.50
2022-12-31T13:38:05.631Z,89.53
2022-12-31T13:40:23.900Z,89.12
2022-12-31T13:42:35.678Z,89.56
2022-12-31T13:44:46.979Z,90.45
2022-12-31T13:46:56.643Z,89.70
2022-12-31T13:49:05.065Z,89.38
2022-12-31T13:51:21.092Z,89.43
2022-12-31T13:53:33.756Z,88.85
2022-12-31T13:55:42.715Z,89.11
2022-12-31T13:57:51.268Z,89.09
2022-12-31T14:00:02.204Z,89.28
2022-12-31T14:02:31.758Z,89.25
2022-12-31T14:04:42.541Z,89.22
2022-12-31T14:06:54.642Z,89.32
2022-12-31T14:08:59.445Z,88.69
2022-12-31T14:11:14.473Z,89.11
2022-12-31T14:13:36.066Z,89.21
2022-12-31T14:15:51.703Z,89.04
2022-12-31T14:18:03.610Z,88.85
2022-12-31T14:20:18.405Z,89.35
2022-12-31T14:22:33.965Z,89.24
2022-12-31T14:24:45.428Z,89.44
2022-12-31T14:26:56.283Z,89.78
2022-12-31T14:29:12.823Z,89.61
2022-12-31T14:31:26.997Z,89.79
2022-12-31T14:33:41.973Z,89.22
2022-12-31T14:36:01.023Z,89.50
2022-12-31T14:38:18.157Z,89.79
2022-12-31T14:40:36.719Z,89.78
2022-12-31T14:42:52.837Z,90.42
2022-12-31T14:45:15.173Z,90.07
2022-12-31T14:47:36.846Z,90.13
2022-12-31T14:49:53.474Z,89.85
2022-12-31T14:52:17.924Z,90.19
2022-12-31T14:54:29.531Z,89.83
2022-12-31T14:56:44.177Z,89.96
2022-12-31T14:58:57.156Z,90.42
2022-12-31T15:01:06.207Z,90.39
2022-12-31T15:03:25.967Z,90.30
2022-12-31T15:05:33.545Z,90.58
2022-12-31T15:07:49.999Z,90.40
2022-12-31T15:10:10.083Z,89.89
2022-12-31T15:12:33.307Z,89.69
2022-12-31T15:15:07.869Z,90.27
2022-12-31T15:17:24.327Z,90.29
2022-12-31T15:20:13.261Z,90.75
2022-12-31T15:22:33.651Z,91.00
2022-12-31T15:24:46.080Z,90.83
2022-12-31T15:26:55.827Z,90.99
2022-12-31T15:29:04.001Z,91.13
2022-12-31T15:31:19.416Z,90.91
2022-12-31T15:33:33.696Z,91.31
2022-12-31T15:35:51.640Z,91.24
2022-12-31T15:38:30.306Z,91.11
2022-12-31T15:40:45.910Z,91.11
2022-12-31T15:42:54.687Z,90.77
2022-12-31T15:45:06.281Z,90.83
2022-12-31T15:47:27.759Z,90.43
2022-12-31T15:49:40.766Z,90.69
2022-12-31T15:51:56.207Z,90.66
2022-12-31T15:54:02.374Z,91.32
2022-12-31T15:56:18.930Z,91.58
2022-12-31T15:58:30.079Z,91.44
2022-12-31T16:00:50.475Z,90.87
2022-12-31T16:02:56.266Z,91.20
2022-12-31T16:05:01.325Z,91.34
2022-12-31T16:07:12.043Z,91.04
2022-12-31T16:09:24.307Z,90.93
2022-12-31T16:11:35.652Z,91.40
2022-12-31T16:13:45.601Z,91.45
2022-12-31T16:16:05.778Z,91.79
2022-12-31T16:18:17.152Z,91.65
2022-12-31T16:20:28.172Z,91.86
2022-12-31T16:22:39.963Z,91.86
2022-12-31T16:25:10.825Z,91.91
2022-12-31T16:27:16.518Z,91.94
2022-12-31T16:29:24.059Z,92.32
2022-12-31T16:31:30.682Z,92.72
2022-12-31T16:33:35.580Z,92.72
2022-12-31T16:35:40.689Z,92.78
2022-12-31T16:37:45.559Z,92.75
2022-12-31T16:40:18.602Z,92.67
2022-12-31T16:42:24.866Z,92.74
2022-12-31T16:44:30.744Z,92.36
2022-12-31T16:46:35.661Z,91.86
2022-12-31T16:48:40.627Z,92.13
2022-12-31T16:50:50.596Z,91.28
2022-12-31T16:53:00.381Z,91.32
2022-12-31T16:55:10.082Z,91.69
2022-12-31T16:57:21.401Z,91.76
2022-12-31T16:59:34.712Z,91.66
2022-12-31T17:01:41.895Z,91.55
2022-12-31T17:03:51.442Z,91.23
2022-12-31T17:05:59.687Z,90.72
2022-12-31T17:08:21.812Z,91.28
2022-12-31T17:10:36.043Z,91.01
2022-12-31T17:13:25.392Z,90.88
2022-12-31T17:15:21.381Z,91.05
2022-12-31T17:17:28.981Z,90.90
2022-12-31T17:19:44.808Z,90.76
2022-12-31T17:21:50.066Z,90.53
2022-12-31T17:24:00.510Z,90.78
2022-12-31T17:26:11.483Z,90.74
2022-12-31T17:28:24.115Z,90.64
2022-12-31T17:30:40.454Z,91.16
2022-12-31T17:32:45.455Z,90.61
2022-12-31T17:34:51.255Z,91.27
2022-12-31T17:37:00.580Z,90.81
2022-12-31T17:39:20.896Z,90.97
2022-12-31T17:41:27.185Z,90.96
2022-12-31T17:43:35.496Z,91.19
2022-12-31T17:45:44.504Z,91.37
2022-12-31T17:47:50.838Z,91.99
2022-12-31T17:49:58.192Z,91.70
2022-12-31T17:52:03.017Z,91.48
2022-12-31T17:54:13.759Z,91.88
2022-12-31T17:56:22.061Z,91.89
2022-12-31T17:58:31.089Z,92.10
2022-12-31T18:00:38.327Z,91.61
2022-12-31T18:02:43.101Z,91.50
2022-12-31T18:04:47.899Z,91.22
2022-12-31T18:06:52.725Z,91.91
2022-12-31T18:08:57.470Z,91.98
2022-12-31T18:11:06.506Z,91.78
2022-12-31T18:13:16.272Z,91.89
2022-12-31T18:15:23.628Z,91.94
2022-12-31T18:17:29.690Z,92.11
2022-12-31T18:21:59.295Z,91.52
2022-12-31T18:24:06.141Z,91.99
2022-12-31T18:26:14.835Z,92.08
2022-12-31T18:28:19.746Z,92.75
2022-12-31T18:30:24.449Z,92.57
2022-12-31T18:32:31.270Z,92.46
2022-12-31T18:34:35.995Z,92.59
2022-12-31T18:36:40.695Z,92.43
2022-12-31T18:38:45.632Z,92.26
2022-12-31T18:40:57.153Z,92.55
2022-12-31T18:43:05.164Z,92.22
2022-12-31T18:45:20.767Z,92.81
2022-12-31T18:47:25.577Z,93.27
2022-12-31T18:49:30.371Z,93.47
2022-12-31T18:51:35.434Z,94.06
2022-12-31T18:53:40.101Z,93.93
2022-12-31T18:55:49.614Z,94.18
2022-12-31T18:57:54.373Z,93.80
2022-12-31T19:00:04.636Z,93.99
2022-12-31T19:02:16.898Z,94.39
2022-12-31T19:04:27.570Z,93.93
2022-12-31T19:06:33.013Z,93.71
2022-12-31T19:08:37.882Z,93.96
2022-12-31T19:10:42.708Z,93.15
2022-12-31T19:12:48.078Z,93.39
2022-12-31T19:14:52.880Z,93.73
2022-12-31T19:19:08.455Z,93.78
2022-12-31T19:21:19.194Z,94.08
2022-12-31T19:23:23.863Z,93.45
2022-12-31T19:25:32.936Z,93.57
2022-12-31T19:27:37.969Z,93.05
2022-12-31T19:29:42.674Z,93.22
2022-12-31T19:31:47.529Z,93.02
2022-12-31T19:33:52.333Z,93.74
2022-12-31T19:36:01.419Z,93.85
2022-12-31T19:38:14.749Z,93.89
2022-12-31T19:40:21.964Z,94.17
2022-12-31T19:42:26.630Z,93.93
2022-12-31T19:44:31.326Z,93.84
2022-12-31T19:46:36.080Z,93.58
2022-12-31T19:48:44.198Z,93.80
2022-12-31T19:50:51.410Z,94.18
2022-12-31T19:52:59.712Z,94.06
2022-12-31T19:55:04.874Z,93.78
2022-12-31T19:57:09.535Z,94.30
2022-12-31T19:59:17.071Z,94.48
2022-12-31T20:01:23.548Z,94.13
2022-12-31T20:03:28.743Z,94.40
2022-12-31T20:05:36.699Z,94.25
2022-12-31T20:07:41.846Z,94.60
2022-12-31T20:09:46.568Z,94.86
2022-12-31T20:11:54.571Z,94.98
2022-12-31T20:14:02.537Z,94.95
2022-12-31T20:16:09.815Z,94.77
2022-12-31T20:18:14.678Z,94.87
2022-12-31T20:20:21.467Z,94.58
2022-12-31T20:22:26.198Z,94.36
2022-12-31T20:24:31.001Z,93.63
2022-12-31T20:26:35.739Z,93.77
2022-12-31T20:28:40.483Z,94.12
2022-12-31T20:30:45.234Z,94.27
2022-12-31T20:32:50.170Z,94.12
2022-12-31T20:34:55.412Z,94.39
2022-12-31T20:37:00.144Z,94.19
2022-12-31T20:39:05.004Z,93.86
2022-12-31T20:41:18.746Z,93.70
2022-12-31T20:43:23.510Z,93.30
2022-12-31T20:45:28.441Z,93.23
2022-12-31T20:47:33.084Z,93.02
2022-12-31T20:52:05.403Z,93.37
2022-12-31T20:54:14.311Z,93.08
2022-12-31T20:56:19.663Z,92.45
2022-12-31T20:58:24.449Z,93.07
2022-12-31T21:00:29.774Z,93.44
2022-12-31T21:02:42.609Z,93.18
2022-12-31T21:04:48.380Z,93.65
2022-12-31T21:06:53.313Z,93.56
2022-12-31T21:08:59.805Z,93.63
2022-12-31T21:11:05.974Z,93.71
2022-12-31T21:13:11.193Z,93.74
2022-12-31T21:15:16.083Z,93.55
2022-12-31T21:17:21.163Z,93.62
2022-12-31T21:19:25.933Z,93.32
2022-12-31T21:21:30.736Z,93.79
2022-12-31T21:23:35.917Z,93.64
2022-12-31T21:25:42.678Z,93.56
2022-12-31T21:27:47.462Z,94.02
2022-12-31T21:30:17.716Z,94.49
2022-12-31T21:32:16.915Z,94.03
2022-12-31T21:34:21.644Z,93.98
2022-12-31T21:36:26.437Z,93.67
2022-12-31T21:38:33.819Z,93.74
2022-12-31T21:40:38.535Z,93.74
2022-12-31T21:42:43.383Z,93.37
2022-12-31T21:44:48.629Z,93.57
2022-12-31T21:47:34.037Z,93.19
2022-12-31T21:49:31.555Z,92.98
2022-12-31T21:51:36.260Z,93.20
2022-12-31T21:53:43.915Z,93.56
2022-12-31T21:55:48.719Z,93.80
2022-12-31T22:00:41.814Z,93.54
2022-12-31T22:02:59.155Z,93.92
2022-12-31T22:05:14.881Z,93.51
2022-12-31T22:07:23.322Z,93.48
2022-12-31T22:09:28.085Z,93.21
2022-12-31T22:11:32.987Z,93.57
2022-12-31T22:13:38.712Z,93.37
2022-12-31T22:15:45.967Z,93.52
2022-12-31T22:17:53.817Z,93.41
2022-12-31T22:22:23.382Z,93.40
2022-12-31T22:24:28.153Z,93.46
2022-12-31T22:26:32.892Z,93.28
2022-12-31T22:28:40.668Z,92.89
2022-12-31T22:30:49.374Z,92.99
2022-12-31T22:32:54.160Z,93.28
2022-12-31T22:34:59.057Z,93.37
2022-12-31T22:37:27.584Z,93.84
2022-12-31T22:39:43.312Z,93.84
2022-12-31T22:41:49.317Z,93.53
2022-12-31T22:44:02.564Z,93.37
2022-12-31T22:46:13.754Z,93.22
2022-12-31T22:48:18.597Z,92.68
2022-12-31T22:50:23.377Z,92.76
2022-12-31T22:52:28.127Z,92.69
2022-12-31T22:54:32.847Z,92.65
2022-12-31T22:56:37.560Z,92.82
2022-12-31T22:58:42.472Z,92.96
2022-12-31T23:00:47.381Z,92.80
2022-12-31T23:02:55.363Z,93.22
2022-12-31T23:05:15.550Z,93.56
2022-12-31T23:07:21.723Z,93.80
2022-12-31T23:09:26.459Z,93.84
2022-12-31T23:11:35.129Z,94.19
2022-12-31T23:13:49.517Z,94.46
2022-12-31T23:15:58.087Z,94.18
2022-12-31T23:18:02.892Z,94.28
2022-12-31T23:20:12.944Z,94.51
2022-12-31T23:22:20.481Z,94.53
2022-12-31T23:24:27.795Z,94.06
2022-12-31T23:26:32.602Z,93.74
2022-12-31T23:28:38.808Z,93.69
2022-12-31T23:30:44.527Z,93.54
2022-12-31T23:32:49.589Z,92.89
2022-12-31T23:34:54.563Z,92.78
2022-12-31T23:36:59.330Z,92.68
2022-12-31T23:39:04.233Z,93.09
2022-12-31T23:41:15.857Z,93.66
2022-12-31T23:43:22.737Z,93.32
2022-12-31T23:45:32.822Z,93.42
2022-12-31T23:47:38.263Z,93.15
2022-12-31T23:49:43.009Z,93.41
2022-12-31T23:51:47.904Z,93.26
2022-12-31T23:53:52.905Z,93.22
2022-12-31T23:56:12.865Z,93.38
2022-12-31T23:58:22.859Z,93.12
